createdAt,value
2023-01-11T00:00:35.281Z,100576.44
2023-01-11T00:03:04.667Z,100586.03
2023-01-11T00:05:32.346Z,100578.38
2023-01-11T00:08:00.176Z,100568.81
2023-01-11T00:10:29.376Z,100575.81
2023-01-11T00:12:56.915Z,100582.66
2023-01-11T00:15:24.457Z,100579.09
2023-01-11T00:17:52.359Z,100572.94
2023-01-11T00:20:19.859Z,100571.28
2023-01-11T00:22:47.427Z,100571.12
2023-01-11T00:25:15.213Z,100578.16
2023-01-11T00:27:42.691Z,100582.50
2023-01-11T00:30:10.911Z,100581.72
2023-01-11T00:32:38.763Z,100582.63
2023-01-11T00:35:06.803Z,100587.78
2023-01-11T00:37:34.543Z,100591.19
2023-01-11T00:40:02.439Z,100598.31
2023-01-11T00:42:48.351Z,100596.59
2023-01-11T00:45:34.824Z,100592.34
2023-01-11T00:48:05.496Z,100591.38
2023-01-11T00:50:38.064Z,100592.34
2023-01-11T00:53:06.638Z,100601.00
2023-01-11T00:55:34.628Z,100607.97
2023-01-11T00:58:02.796Z,100605.38
2023-01-11T01:00:30.468Z,100601.88
2023-01-11T01:02:58.329Z,100602.87
2023-01-11T01:05:25.914Z,100617.47
2023-01-11T01:07:53.487Z,100601.12
2023-01-11T01:10:21.477Z,100598.44
2023-01-11T01:13:07.136Z,100593.34
2023-01-11T01:15:35.207Z,100605.34
2023-01-11T01:18:02.824Z,100591.62
2023-01-11T01:20:30.300Z,100581.12
2023-01-11T01:22:58.128Z,100576.81
2023-01-11T01:25:25.743Z,100556.84
2023-01-11T01:27:53.220Z,100555.19
2023-01-11T01:30:21.015Z,100556.75
2023-01-11T01:32:48.508Z,100563.81
2023-01-11T01:35:16.038Z,100573.31
2023-01-11T01:37:44.850Z,100575.00
2023-01-11T01:40:12.814Z,100556.84
2023-01-11T01:42:40.286Z,100562.87
2023-01-11T01:45:20.180Z,100566.37
2023-01-11T01:47:52.663Z,100566.44
2023-01-11T01:50:26.655Z,100558.66
2023-01-11T01:52:57.714Z,100565.66
2023-01-11T01:55:29.829Z,100563.97
2023-01-11T01:57:58.727Z,100559.59
2023-01-11T02:00:26.565Z,100569.13
2023-01-11T02:02:55.965Z,100592.59
2023-01-11T02:05:23.912Z,100590.94
2023-01-11T02:07:52.117Z,100571.88
2023-01-11T02:10:21.330Z,100584.84
2023-01-11T02:13:00.945Z,100583.09
2023-01-11T02:15:29.268Z,100581.38
2023-01-11T02:17:57.054Z,100578.53
2023-01-11T02:20:35.525Z,100587.25
2023-01-11T02:23:27.517Z,100579.56
2023-01-11T02:26:13.254Z,100580.44
2023-01-11T02:29:06.911Z,100578.78
2023-01-11T02:31:46.173Z,100584.88
2023-01-11T02:34:19.710Z,100587.53
2023-01-11T02:37:11.294Z,100578.84
2023-01-11T02:40:04.240Z,100578.00
2023-01-11T02:43:08.906Z,100591.06
2023-01-11T02:45:59.929Z,100597.94
2023-01-11T02:48:35.212Z,100595.31
2023-01-11T02:51:11.209Z,100589.31
2023-01-11T02:53:45.850Z,100604.81
2023-01-11T02:56:20.187Z,100607.47
2023-01-11T02:58:51.155Z,100614.44
2023-01-11T03:01:22.650Z,100609.22
2023-01-11T03:03:50.515Z,100624.91
2023-01-11T03:06:23.112Z,100637.00
2023-01-11T03:09:08.108Z,100638.81
2023-01-11T03:12:14.583Z,100640.63
2023-01-11T03:15:14.805Z,100635.50
2023-01-11T03:18:28.314Z,100637.25
2023-01-11T03:21:25.332Z,100635.62
2023-01-11T03:23:58.946Z,100627.84
2023-01-11T03:26:37.954Z,100639.16
2023-01-11T03:29:20.902Z,100644.44
2023-01-11T03:32:07.242Z,100644.34
2023-01-11T03:34:40.469Z,100651.44
2023-01-11T03:37:12.807Z,100647.94
2023-01-11T03:39:42.978Z,100642.81
2023-01-11T03:42:13.529Z,100634.16
2023-01-11T03:44:44.056Z,100641.97
2023-01-11T03:47:13.853Z,100642.97
2023-01-11T03:49:57.408Z,100648.94
2023-01-11T03:52:30.847Z,100637.75
2023-01-11T03:54:59.510Z,100647.28
2023-01-11T03:57:36.427Z,100644.66
2023-01-11T04:00:05.622Z,100646.44
2023-01-11T04:02:40.959Z,100648.16
2023-01-11T04:05:10.209Z,100653.28
2023-01-11T04:07:38.125Z,100642.88
2023-01-11T04:10:06.211Z,100642.91
2023-01-11T04:12:33.888Z,100639.47
2023-01-11T04:15:03.221Z,100641.25
2023-01-11T04:17:31.559Z,100643.09
2023-01-11T04:19:59.198Z,100643.84
2023-01-11T04:22:26.993Z,100636.81
2023-01-11T04:24:54.492Z,100652.38
2023-01-11T04:27:21.953Z,100666.28
2023-01-11T04:29:49.850Z,100665.47
2023-01-11T04:32:17.685Z,100665.53
2023-01-11T04:34:45.528Z,100665.56
2023-01-11T04:37:13.309Z,100684.53
2023-01-11T04:39:40.837Z,100688.91
2023-01-11T04:42:18.488Z,100684.59
2023-01-11T04:44:48.756Z,100675.16
2023-01-11T04:47:16.887Z,100693.12
2023-01-11T04:49:46.298Z,100692.41
2023-01-11T04:52:15.788Z,100708.94
2023-01-11T04:54:44.180Z,100695.19
2023-01-11T04:57:13.588Z,100707.31
2023-01-11T04:59:41.733Z,100709.97
2023-01-11T05:02:09.373Z,100709.09
2023-01-11T05:04:36.944Z,100709.19
2023-01-11T05:07:04.802Z,100711.81
2023-01-11T05:09:32.322Z,100709.31
2023-01-11T05:11:59.853Z,100711.97
2023-01-11T05:14:27.756Z,100701.63
2023-01-11T05:16:55.270Z,100715.50
2023-01-11T05:19:22.806Z,100718.97
2023-01-11T05:21:50.724Z,100728.56
2023-01-11T05:24:18.524Z,100731.19
2023-01-11T05:26:46.384Z,100735.50
2023-01-11T05:29:20.484Z,100733.78
2023-01-11T05:31:48.522Z,100738.97
2023-01-11T05:34:17.491Z,100736.47
2023-01-11T05:36:45.332Z,100743.31
2023-01-11T05:39:13.838Z,100740.81
2023-01-11T05:41:42.112Z,100748.47
2023-01-11T05:44:31.472Z,100754.59
2023-01-11T05:46:59.630Z,100758.03
2023-01-11T05:49:27.282Z,100756.34
2023-01-11T05:51:54.905Z,100760.69
2023-01-11T05:54:22.695Z,100758.13
2023-01-11T05:56:50.227Z,100765.91
2023-01-11T05:59:17.841Z,100760.69
2023-01-11T06:01:46.142Z,100759.88
2023-01-11T06:04:14.571Z,100762.50
2023-01-11T06:06:42.189Z,100764.22
2023-01-11T06:09:09.817Z,100762.59
2023-01-11T06:11:37.699Z,100771.19
2023-01-11T06:14:05.322Z,100776.41
2023-01-11T06:16:32.909Z,100779.09
2023-01-11T06:19:01.053Z,100776.44
2023-01-11T06:21:28.710Z,100779.09
2023-01-11T06:23:56.294Z,100782.56
2023-01-11T06:26:24.608Z,100775.66
2023-01-11T06:28:52.709Z,100784.28
2023-01-11T06:31:20.468Z,100792.25
2023-01-11T06:33:48.513Z,100789.53
2023-01-11T06:36:16.606Z,100791.22
2023-01-11T06:38:44.632Z,100786.88
2023-01-11T06:41:13.423Z,100793.81
2023-01-11T06:43:42.145Z,100791.16
2023-01-11T06:46:13.289Z,100784.25
2023-01-11T06:48:41.207Z,100792.91
2023-01-11T06:51:12.031Z,100785.09
2023-01-11T06:53:41.307Z,100788.56
2023-01-11T06:56:13.533Z,100792.06
2023-01-11T06:58:41.298Z,100780.78
2023-01-11T07:01:09.950Z,100781.66
2023-01-11T07:03:39.320Z,100786.75
2023-01-11T07:06:07.252Z,100804.06
2023-01-11T07:08:35.100Z,100798.88
2023-01-11T07:11:03.050Z,100798.88
2023-01-11T07:13:30.718Z,100790.28
2023-01-11T07:15:58.624Z,100798.94
2023-01-11T07:18:27.181Z,100803.22
2023-01-11T07:20:55.617Z,100804.06
2023-01-11T07:23:23.456Z,100811.00
2023-01-11T07:25:51.098Z,100815.31
2023-01-11T07:28:18.742Z,100817.00
2023-01-11T07:30:58.351Z,100827.44
2023-01-11T07:33:26.940Z,100811.78
2023-01-11T07:35:54.978Z,100805.72
2023-01-11T07:38:22.848Z,100817.81
2023-01-11T07:40:50.630Z,100817.72
2023-01-11T07:43:20.067Z,100815.97
2023-01-11T07:45:49.866Z,100812.44
2023-01-11T07:48:25.324Z,100805.50
2023-01-11T07:50:53.571Z,100809.75
2023-01-11T07:53:21.885Z,100808.75
2023-01-11T07:55:49.511Z,100798.31
2023-01-11T07:58:17.130Z,100788.66
2023-01-11T08:00:46.157Z,100792.91
2023-01-11T08:03:14.413Z,100789.47
2023-01-11T08:05:42.477Z,100797.28
2023-01-11T08:08:10.464Z,100798.03
2023-01-11T08:10:41.129Z,100803.19
2023-01-11T08:13:31.473Z,100813.44
2023-01-11T08:16:00.102Z,100813.34
2023-01-11T08:18:27.804Z,100835.53
2023-01-11T08:20:55.512Z,100831.84
2023-01-11T08:23:23.582Z,100848.22
2023-01-11T08:25:56.589Z,100845.59
2023-01-11T08:28:24.748Z,100857.66
2023-01-11T08:30:52.507Z,100868.91
2023-01-11T08:33:20.041Z,100863.84
2023-01-11T08:35:48.044Z,100874.97
2023-01-11T08:38:15.607Z,100868.84
2023-01-11T08:40:43.222Z,100864.37
2023-01-11T08:43:11.130Z,100859.28
2023-01-11T08:45:38.748Z,100866.88
2023-01-11T08:48:06.907Z,100878.22
2023-01-11T08:50:34.771Z,100861.56
2023-01-11T08:53:02.444Z,100852.84
2023-01-11T08:55:30.919Z,100865.72
2023-01-11T08:57:58.737Z,100863.03
2023-01-11T09:00:26.422Z,100869.94
2023-01-11T09:02:54.141Z,100869.00
2023-01-11T09:05:22.437Z,100873.38
2023-01-11T09:07:50.046Z,100875.03
2023-01-11T09:10:17.819Z,100878.47
2023-01-11T09:12:45.762Z,100872.34
2023-01-11T09:15:13.624Z,100878.47
2023-01-11T09:17:41.110Z,100887.22
2023-01-11T09:20:12.047Z,100895.75
2023-01-11T09:22:39.849Z,100900.09
2023-01-11T09:25:08.467Z,100905.38
2023-01-11T09:27:36.355Z,100890.66
2023-01-11T09:30:05.616Z,100900.19
2023-01-11T09:32:35.812Z,100905.59
2023-01-11T09:35:04.811Z,100902.81
2023-01-11T09:37:32.738Z,100899.34
2023-01-11T09:40:01.623Z,100893.22
2023-01-11T09:42:39.782Z,100892.28
2023-01-11T09:45:18.474Z,100895.78
2023-01-11T09:48:12.629Z,100887.09
2023-01-11T09:50:43.545Z,100886.25
2023-01-11T09:53:27.246Z,100897.44
2023-01-11T09:55:58.165Z,100883.50
2023-01-11T09:58:51.167Z,100879.84
2023-01-11T10:01:30.003Z,100883.22
2023-01-11T10:04:21.958Z,100872.72
2023-01-11T10:07:34.816Z,100860.31
2023-01-11T10:18:32.892Z,100879.78
2023-01-11T10:19:45.362Z,100880.53
2023-01-11T10:22:24.866Z,100869.53
2023-01-11T10:25:21.956Z,100867.75
2023-01-11T10:27:56.864Z,100878.78
2023-01-11T10:31:08.390Z,100886.34
2023-01-11T10:33:58.268Z,100871.94
2023-01-11T10:36:38.250Z,100883.78
2023-01-11T10:39:23.822Z,100880.44
2023-01-11T10:42:01.520Z,100875.69
2023-01-11T10:44:48.723Z,100869.56
2023-01-11T10:47:20.332Z,100881.34
2023-01-11T10:49:56.058Z,100882.13
2023-01-11T10:52:41.671Z,100882.06
2023-01-11T10:55:16.009Z,100876.53
2023-01-11T10:58:06.992Z,100872.16
2023-01-11T11:00:48.743Z,100871.69
2023-01-11T11:03:25.841Z,100865.06
2023-01-11T11:05:59.743Z,100867.56
2023-01-11T11:08:53.791Z,100864.84
2023-01-11T11:11:38.520Z,100866.94
2023-01-11T11:14:19.862Z,100853.19
2023-01-11T11:16:53.740Z,100846.31
2023-01-11T11:19:25.797Z,100849.34
2023-01-11T11:21:53.928Z,100846.91
2023-01-11T11:24:33.225Z,100841.53
2023-01-11T11:27:22.594Z,100838.25
2023-01-11T11:29:55.821Z,100856.38
2023-01-11T11:32:27.930Z,100841.47
2023-01-11T11:34:55.790Z,100850.63
2023-01-11T11:37:32.408Z,100862.31
2023-01-11T11:40:00.444Z,100860.56
2023-01-11T11:42:28.529Z,100869.97
2023-01-11T11:45:17.953Z,100863.53
2023-01-11T11:48:03.557Z,100861.69
2023-01-11T11:50:44.346Z,100878.03
2023-01-11T11:53:44.224Z,100890.13
2023-01-11T11:56:16.068Z,100891.81
2023-01-11T11:58:44.719Z,100886.59
2023-01-11T12:01:33.060Z,100884.84
2023-01-11T12:07:20.584Z,100885.22
2023-01-11T12:09:55.108Z,100880.66
2023-01-11T12:12:25.924Z,100877.72
2023-01-11T12:15:23.886Z,100890.66
2023-01-11T12:17:52.350Z,100882.62
2023-01-11T12:20:24.016Z,100882.78
2023-01-11T12:23:21.837Z,100870.78
2023-01-11T12:26:20.165Z,100874.91
2023-01-11T12:29:24.859Z,100874.03
2023-01-11T12:32:28.427Z,100873.12
2023-01-11T12:34:59.895Z,100862.81
2023-01-11T12:37:53.423Z,100863.78
2023-01-11T12:40:32.163Z,100848.19
2023-01-11T12:43:10.866Z,100848.94
2023-01-11T12:45:55.244Z,100853.31
2023-01-11T12:48:50.373Z,100848.78
2023-01-11T12:51:41.300Z,100851.41
2023-01-11T12:54:34.463Z,100869.53
2023-01-11T12:58:03.457Z,100861.03
2023-01-11T13:01:37.438Z,100862.44
2023-01-11T13:08:38.787Z,100873.69
2023-01-11T13:19:30.528Z,100872.44
2023-01-11T13:22:24.515Z,100887.91
2023-01-11T13:25:46.659Z,100886.41
2023-01-11T13:29:13.669Z,100882.19
2023-01-11T13:31:42.477Z,100892.62
2023-01-11T13:34:34.036Z,100893.38
2023-01-11T13:37:20.472Z,100893.50
2023-01-11T13:40:03.690Z,100903.91
2023-01-11T13:42:38.176Z,100906.59
2023-01-11T13:45:19.013Z,100904.13
2023-01-11T13:47:49.844Z,100915.53
2023-01-11T13:50:31.346Z,100914.66
2023-01-11T13:53:10.165Z,100908.56
2023-01-11T13:55:56.987Z,100906.06
2023-01-11T13:58:32.484Z,100907.03
2023-01-11T14:01:00.450Z,100911.22
2023-01-11T14:03:32.364Z,100917.44
2023-01-11T14:06:31.350Z,100918.34
2023-01-11T14:09:31.791Z,100924.44
2023-01-11T14:12:09.969Z,100927.06
2023-01-11T14:14:56.209Z,100921.13
2023-01-11T14:17:45.072Z,100926.34
2023-01-11T14:20:36.855Z,100930.78
2023-01-11T14:23:12.083Z,100935.31
2023-01-11T14:25:58.736Z,100941.56
2023-01-11T14:28:54.407Z,100947.56
2023-01-11T14:31:53.627Z,100945.09
2023-01-11T14:34:36.377Z,100944.31
2023-01-11T14:37:23.762Z,100954.03
2023-01-11T14:39:58.383Z,100945.34
2023-01-11T14:42:52.768Z,100939.47
2023-01-11T14:45:27.521Z,100941.41
2023-01-11T14:48:36.108Z,100940.56
2023-01-11T14:51:18.865Z,100943.22
2023-01-11T14:53:52.682Z,100932.91
2023-01-11T14:56:42.186Z,100949.63
2023-01-11T14:59:24.848Z,100949.53
2023-01-11T15:02:05.000Z,100941.94
2023-01-11T15:04:38.176Z,100951.78
2023-01-11T15:07:31.663Z,100959.59
2023-01-11T15:10:04.608Z,100963.97
2023-01-11T15:12:34.322Z,100958.81
2023-01-11T15:15:11.520Z,100958.84
2023-01-11T15:17:58.321Z,100968.53
2023-01-11T15:20:26.795Z,100964.97
2023-01-11T15:22:56.668Z,100941.78
2023-01-11T15:25:25.821Z,100934.03
2023-01-11T15:27:54.597Z,100935.00
2023-01-11T15:30:31.134Z,100941.16
2023-01-11T15:33:17.163Z,100943.81
2023-01-11T15:36:03.763Z,100948.38
2023-01-11T15:38:45.354Z,100944.84
2023-01-11T15:41:35.647Z,100944.16
2023-01-11T15:44:25.279Z,100949.50
2023-01-11T15:47:07.275Z,100955.72
2023-01-11T15:49:58.461Z,100957.47
2023-01-11T15:52:53.981Z,100955.78
2023-01-11T15:55:40.092Z,100956.03
2023-01-11T15:58:44.900Z,100964.78
2023-01-11T16:01:22.489Z,100976.94
2023-01-11T16:04:23.790Z,100965.72
2023-01-11T16:06:53.102Z,100969.28
2023-01-11T16:09:42.731Z,100973.66
2023-01-11T16:12:47.849Z,100976.41
2023-01-11T16:15:31.231Z,100977.44
2023-01-11T16:18:11.053Z,100979.28
2023-01-11T16:20:40.343Z,100976.72
2023-01-11T16:23:08.179Z,100979.31
2023-01-11T16:25:38.532Z,100976.00
2023-01-11T16:28:07.717Z,100979.56
2023-01-11T16:30:35.328Z,100977.97
2023-01-11T16:33:14.687Z,100990.28
2023-01-11T16:35:42.964Z,100989.50
2023-01-11T16:38:17.755Z,100987.75
2023-01-11T16:40:49.050Z,100987.09
2023-01-11T16:43:29.185Z,101003.47
2023-01-11T16:45:57.178Z,100994.91
2023-01-11T16:48:29.626Z,100993.22
2023-01-11T16:51:03.877Z,101005.41
2023-01-11T16:53:40.187Z,101011.41
2023-01-11T16:56:15.446Z,101017.56
2023-01-11T16:58:43.524Z,101018.47
2023-01-11T17:01:13.816Z,101030.56
2023-01-11T17:03:52.055Z,101024.59
2023-01-11T17:06:22.819Z,101024.78
2023-01-11T17:08:52.268Z,101028.31
2023-01-11T17:11:27.671Z,101020.53
2023-01-11T17:14:37.279Z,101009.34
2023-01-11T17:17:07.390Z,101011.94
2023-01-11T17:19:46.117Z,101010.31
2023-01-11T17:22:22.026Z,101023.25
2023-01-11T17:25:06.192Z,101028.47
2023-01-11T17:27:40.627Z,101027.59
2023-01-11T17:30:17.963Z,101038.91
2023-01-11T17:32:48.254Z,101034.69
2023-01-11T17:35:18.438Z,101029.53
2023-01-11T17:37:49.018Z,101032.16
2023-01-11T17:40:31.873Z,101033.94
2023-01-11T17:43:30.326Z,101026.19
2023-01-11T17:45:58.854Z,101036.69
2023-01-11T17:48:27.542Z,101026.25
2023-01-11T17:50:59.823Z,101014.06
2023-01-11T17:53:32.492Z,101014.94
2023-01-11T17:56:01.150Z,101014.97
2023-01-11T17:58:30.539Z,101017.50
2023-01-11T18:01:09.872Z,101016.66
2023-01-11T18:03:50.677Z,101005.47
2023-01-11T18:06:41.871Z,101016.72
2023-01-11T18:09:22.617Z,101021.06
2023-01-11T18:11:51.347Z,101021.06
2023-01-11T18:14:27.993Z,101034.00
2023-01-11T18:17:03.798Z,101033.09
2023-01-11T18:19:31.903Z,101034.81
2023-01-11T18:21:59.491Z,101028.72
2023-01-11T18:24:33.514Z,101020.06
2023-01-11T18:27:16.352Z,101026.16
2023-01-11T18:29:48.097Z,101039.94
2023-01-11T18:32:16.267Z,101040.78
2023-01-11T18:34:46.570Z,101040.75
2023-01-11T18:37:14.202Z,101045.91
2023-01-11T18:39:42.864Z,101051.91
2023-01-11T18:42:15.818Z,101048.41
2023-01-11T18:44:46.849Z,101037.09
2023-01-11T18:47:26.651Z,101038.84
2023-01-11T18:49:54.657Z,101045.78
2023-01-11T18:52:27.806Z,101039.72
2023-01-11T18:54:56.563Z,101038.81
2023-01-11T18:57:24.655Z,101036.13
2023-01-11T18:59:57.124Z,101038.72
2023-01-11T19:02:30.615Z,101043.03
2023-01-11T19:04:58.612Z,101044.72
2023-01-11T19:07:26.863Z,101060.28
2023-01-11T19:09:55.089Z,101066.31
2023-01-11T19:12:23.780Z,101062.78
2023-01-11T19:14:51.820Z,101063.59
2023-01-11T19:17:19.430Z,101065.28
2023-01-11T19:19:47.914Z,101056.59
2023-01-11T19:22:15.855Z,101065.22
2023-01-11T19:24:43.285Z,101072.97
2023-01-11T19:27:13.638Z,101079.03
2023-01-11T19:29:42.718Z,101073.81
2023-01-11T19:32:10.324Z,101073.81
2023-01-11T19:34:39.789Z,101076.38
2023-01-11T19:37:07.908Z,101075.50
2023-01-11T19:39:36.888Z,101072.91
2023-01-11T19:42:05.047Z,101066.94
2023-01-11T19:44:34.852Z,101073.81
2023-01-11T19:47:11.529Z,101072.13
2023-01-11T19:49:41.910Z,101069.53
2023-01-11T19:52:18.851Z,101073.94
2023-01-11T19:54:47.087Z,101078.25
2023-01-11T19:57:18.752Z,101073.06
2023-01-11T19:59:47.186Z,101079.12
2023-01-11T20:02:17.070Z,101086.03
2023-01-11T20:04:45.000Z,101081.81
2023-01-11T20:07:13.545Z,101083.50
2023-01-11T20:09:41.395Z,101087.87
2023-01-11T20:12:11.646Z,101081.00
2023-01-11T20:14:40.542Z,101082.66
2023-01-11T20:17:08.731Z,101086.12
2023-01-11T20:19:36.976Z,101080.94
2023-01-11T20:22:05.332Z,101093.03
2023-01-11T20:24:33.095Z,101092.25
2023-01-11T20:27:02.763Z,101091.37
2023-01-11T20:29:30.844Z,101094.84
2023-01-11T20:32:18.686Z,101095.69
2023-01-11T20:34:46.617Z,101095.59
2023-01-11T20:37:15.186Z,101094.78
2023-01-11T20:39:42.841Z,101100.00
2023-01-11T20:42:12.614Z,101099.06
2023-01-11T20:44:40.421Z,101085.28
2023-01-11T20:47:08.302Z,101089.56
2023-01-11T20:49:36.173Z,101095.63
2023-01-11T20:52:04.418Z,101099.06
2023-01-11T20:54:32.202Z,101098.16
2023-01-11T20:57:05.349Z,101098.09
2023-01-11T20:59:32.929Z,101098.94
2023-01-11T21:02:00.995Z,101091.13
2023-01-11T21:04:28.785Z,101097.16
2023-01-11T21:06:56.397Z,101095.44
2023-01-11T21:09:24.207Z,101086.81
2023-01-11T21:11:54.392Z,101086.94
2023-01-11T21:14:22.499Z,101081.66
2023-01-11T21:16:50.311Z,101072.13
2023-01-11T21:19:18.506Z,101073.03
2023-01-11T21:21:47.457Z,101070.47
2023-01-11T21:24:16.983Z,101074.00
2023-01-11T21:26:45.868Z,101073.19
2023-01-11T21:29:13.867Z,101081.16
2023-01-11T21:31:42.081Z,101071.81
2023-01-11T21:34:13.129Z,101077.91
2023-01-11T21:36:41.352Z,101086.56
2023-01-11T21:39:13.078Z,101088.25
2023-01-11T21:41:56.126Z,101080.47
2023-01-11T21:44:28.075Z,101078.69
2023-01-11T21:46:55.926Z,101084.75
2023-01-11T21:49:24.420Z,101090.87
2023-01-11T21:51:52.156Z,101098.72
2023-01-11T21:54:20.243Z,101099.62
2023-01-11T21:56:48.440Z,101093.63
2023-01-11T21:59:16.258Z,101108.41
2023-01-11T22:01:45.249Z,101111.03
2023-01-11T22:04:16.150Z,101114.53
2023-01-11T22:06:51.210Z,101120.56
2023-01-11T22:09:20.348Z,101110.19
2023-01-11T22:11:48.173Z,101109.41
2023-01-11T22:14:15.771Z,101118.06
2023-01-11T22:16:43.680Z,101113.78
2023-01-11T22:19:11.382Z,101109.47
2023-01-11T22:21:39.247Z,101122.38
2023-01-11T22:24:10.361Z,101132.72
2023-01-11T22:26:39.059Z,101128.34
2023-01-11T22:29:17.670Z,101130.03
2023-01-11T22:31:48.911Z,101122.25
2023-01-11T22:34:17.547Z,101130.00
2023-01-11T22:36:45.628Z,101137.81
2023-01-11T22:39:14.383Z,101128.22
2023-01-11T22:41:45.507Z,101137.66
2023-01-11T22:44:13.861Z,101133.31
2023-01-11T22:46:42.161Z,101138.53
2023-01-11T22:49:10.673Z,101137.69
2023-01-11T22:51:38.432Z,101133.31
2023-01-11T22:54:06.137Z,101132.41
2023-01-11T22:56:34.016Z,101136.69
2023-01-11T22:59:02.587Z,101129.81
2023-01-11T23:01:32.980Z,101129.88
2023-01-11T23:04:01.302Z,101114.38
2023-01-11T23:06:34.321Z,101132.53
2023-01-11T23:09:02.612Z,101127.28
2023-01-11T23:11:51.055Z,101135.03
2023-01-11T23:14:19.760Z,101133.22
2023-01-11T23:16:49.550Z,101140.25
2023-01-11T23:19:19.813Z,101132.59
2023-01-11T23:21:47.941Z,101138.69
2023-01-11T23:24:16.662Z,101142.13
2023-01-11T23:26:45.422Z,101142.09
2023-01-11T23:29:13.456Z,101152.47
2023-01-11T23:31:42.908Z,101137.78
2023-01-11T23:34:11.919Z,101129.00
2023-01-11T23:36:41.660Z,101121.22
2023-01-11T23:39:16.961Z,101135.00
2023-01-11T23:42:03.319Z,101137.56
2023-01-11T23:44:30.940Z,101134.06
2023-01-11T23:47:17.552Z,101128.84
2023-01-11T23:49:45.596Z,101127.19
2023-01-11T23:52:14.037Z,101123.72
2023-01-11T23:54:41.764Z,101128.00
2023-01-11T23:57:12.288Z,101124.56
2023-01-11T23:59:41.265Z,101127.22
